Terminal Aerodrome Forecast
Issued by NWS Topeka, KS

Home | Current Version | Previous Version | Text Only | Print | Product List | Glossary On
Versions: 1 2 3 4 5 6 7 8 9 10 11 12 13 14 15 16 17 18 19 20
000
FTUS43 KTOP 241700
TAFTOP
TAF
KTOP 241734Z 2418/2518 18010KT P6SM VCSH SCT025 BKN040
      TEMPO 2422/2502 4SM -TSRA OVC015CB
     FM250200 18006KT P6SM BKN050
     FM251300 18006KT P6SM VCSH SCT012 BKN050=

USA.gov is the U.S. government's official web portal to all federal, state and local government web resources and services.